createdAt,value
2023-04-04T00:00:04.191Z,500.00
2023-04-04T00:01:04.217Z,500.00
2023-04-04T00:02:04.193Z,500.00
2023-04-04T00:03:04.209Z,500.00
2023-04-04T00:04:04.221Z,526.00
2023-04-04T00:05:04.134Z,493.00
2023-04-04T00:06:04.121Z,466.00
2023-04-04T00:07:04.108Z,443.00
2023-04-04T00:08:04.152Z,452.00
2023-04-04T00:09:04.078Z,429.00
2023-04-04T00:10:04.077Z,405.00
2023-04-04T00:11:04.056Z,400.00
2023-04-04T00:12:04.058Z,474.00
2023-04-04T00:13:04.126Z,501.00
2023-04-04T00:14:04.082Z,570.00
2023-04-04T00:15:04.088Z,614.00
2023-04-04T00:16:04.117Z,576.00
2023-04-04T00:17:04.098Z,513.00
2023-04-04T00:18:04.348Z,507.00
2023-04-04T00:19:04.159Z,518.00
2023-04-04T00:20:04.192Z,574.00
2023-04-04T00:21:04.199Z,599.00
2023-04-04T00:22:04.272Z,591.00
2023-04-04T00:23:04.404Z,540.00
2023-04-04T00:24:04.425Z,557.00
2023-04-04T00:25:04.498Z,615.00
2023-04-04T00:26:04.555Z,669.00
2023-04-04T00:27:04.606Z,770.00
2023-04-04T00:28:04.667Z,897.00
2023-04-04T00:29:04.669Z,931.00
2023-04-04T00:30:04.724Z,947.00
2023-04-04T00:31:04.800Z,911.00
2023-04-04T00:32:04.814Z,811.00
2023-04-04T00:33:04.917Z,949.00
2023-04-04T00:34:04.823Z,1021.00
2023-04-04T00:35:04.850Z,951.00
2023-04-04T00:36:04.969Z,859.00
2023-04-04T00:37:04.887Z,1063.00
2023-04-04T00:38:04.947Z,1235.00
2023-04-04T00:39:04.930Z,1255.00
2023-04-04T00:40:04.979Z,1265.00
2023-04-04T00:41:04.996Z,1415.00
2023-04-04T00:42:05.006Z,1350.00
2023-04-04T00:43:05.031Z,1211.00
2023-04-04T00:44:04.992Z,1173.00
2023-04-04T00:45:04.988Z,1152.00
2023-04-04T00:46:05.052Z,1094.00
2023-04-04T00:47:04.986Z,945.00
2023-04-04T00:48:05.084Z,967.00
2023-04-04T00:49:05.014Z,1046.00
2023-04-04T00:50:05.009Z,1040.00
2023-04-04T00:51:05.003Z,1259.00
2023-04-04T00:52:04.999Z,1244.00
2023-04-04T00:53:05.030Z,1307.00
2023-04-04T00:54:05.006Z,1376.00
2023-04-04T00:55:05.035Z,1448.00
2023-04-04T00:56:05.078Z,1494.00
2023-04-04T00:57:05.066Z,1413.00
2023-04-04T00:58:05.126Z,1416.00
2023-04-04T00:59:05.116Z,1423.00
2023-04-04T01:00:05.121Z,1552.00
2023-04-04T01:01:05.217Z,1663.00
2023-04-04T01:02:05.221Z,1784.00
2023-04-04T01:03:05.242Z,1924.00
2023-04-04T01:04:05.324Z,2214.00
2023-04-04T01:05:05.295Z,2714.00
2023-04-04T01:06:05.276Z,3210.00
2023-04-04T01:07:05.276Z,3617.00
2023-04-04T01:08:05.314Z,4058.00
2023-04-04T01:09:05.329Z,4417.00
2023-04-04T01:10:05.384Z,4585.00
2023-04-04T01:11:05.440Z,4584.00
2023-04-04T01:12:05.481Z,4652.00
2023-04-04T01:13:05.502Z,4711.00
2023-04-04T01:14:05.523Z,4839.00
2023-04-04T01:15:05.532Z,4796.00
2023-04-04T01:16:05.579Z,4588.00
2023-04-04T01:17:05.614Z,4634.00
2023-04-04T01:18:05.716Z,4774.00
2023-04-04T01:19:05.722Z,4524.00
2023-04-04T01:20:05.736Z,4285.00
2023-04-04T01:21:05.788Z,4219.00
2023-04-04T01:22:05.838Z,4320.00
2023-04-04T01:23:05.865Z,4322.00
2023-04-04T01:24:05.923Z,4391.00
2023-04-04T01:25:05.981Z,4449.00
2023-04-04T01:26:06.003Z,4412.00
2023-04-04T01:27:06.024Z,4130.00
2023-04-04T01:28:06.096Z,3922.00
2023-04-04T01:29:06.153Z,3959.00
2023-04-04T01:30:06.218Z,4065.00
2023-04-04T01:31:05.309Z,4095.00
2023-04-04T01:32:06.335Z,4212.00
2023-04-04T01:33:06.470Z,4267.00
2023-04-04T01:34:06.491Z,4247.00
2023-04-04T01:35:06.533Z,4159.00
2023-04-04T01:36:06.631Z,4100.00
2023-04-04T01:37:06.598Z,4157.00
2023-04-04T01:38:06.598Z,4128.00
2023-04-04T01:39:06.605Z,4166.00
2023-04-04T01:40:06.606Z,4219.00
2023-04-04T01:41:06.670Z,4269.00
2023-04-04T01:42:06.687Z,4273.00
2023-04-04T01:43:06.709Z,4411.00
2023-04-04T01:44:06.736Z,4206.00
2023-04-04T01:45:06.792Z,4078.00
2023-04-04T01:46:06.943Z,3994.00
2023-04-04T01:47:06.886Z,4026.00
2023-04-04T01:48:06.896Z,4243.00
2023-04-04T01:49:08.327Z,4463.00
2023-04-04T01:50:06.928Z,4668.00
2023-04-04T01:51:06.905Z,4459.00
2023-04-04T01:52:06.869Z,4266.00
2023-04-04T01:53:06.832Z,4267.00
2023-04-04T01:54:06.832Z,4286.00
2023-04-04T01:55:06.806Z,4255.00
2023-04-04T01:56:06.788Z,4159.00
2023-04-04T01:57:06.762Z,4231.00
2023-04-04T01:58:06.737Z,4217.00
2023-04-04T01:59:06.799Z,4097.00
2023-04-04T02:00:06.680Z,4076.00
2023-04-04T02:01:06.724Z,4186.00
2023-04-04T02:02:06.676Z,4186.00
2023-04-04T02:03:06.681Z,4254.00
2023-04-04T02:04:06.659Z,4239.00
2023-04-04T02:05:06.579Z,4339.00
2023-04-04T02:06:06.579Z,4747.00
2023-04-04T02:07:06.546Z,5037.00
2023-04-04T02:08:06.495Z,5039.00
2023-04-04T02:09:06.460Z,4890.00
2023-04-04T02:10:06.439Z,4698.00
2023-04-04T02:11:06.417Z,4597.00
2023-04-04T02:12:06.491Z,4730.00
2023-04-04T02:13:06.354Z,4719.00
2023-04-04T02:14:06.350Z,4516.00
2023-04-04T02:15:06.311Z,4517.00
2023-04-04T02:16:06.364Z,4578.00
2023-04-04T02:17:06.279Z,4514.00
2023-04-04T02:18:06.255Z,4398.00
2023-04-04T02:19:06.213Z,4338.00
2023-04-04T02:20:06.186Z,4326.00
2023-04-04T02:21:06.169Z,4274.00
2023-04-04T02:22:06.161Z,4404.00
2023-04-04T02:23:06.110Z,4669.00
2023-04-04T02:24:06.095Z,5130.00
2023-04-04T02:25:06.078Z,5557.00
2023-04-04T02:26:06.056Z,5906.00
2023-04-04T02:27:06.023Z,5967.00
2023-04-04T02:28:06.006Z,5980.00
2023-04-04T02:29:05.970Z,5877.00
2023-04-04T02:30:05.951Z,4829.00
2023-04-04T02:31:05.927Z,4166.00
2023-04-04T02:32:05.930Z,3888.00
2023-04-04T02:33:05.974Z,3724.00
2023-04-04T02:34:06.000Z,3890.00
2023-04-04T02:35:06.036Z,4352.00
2023-04-04T02:36:06.226Z,4531.00
2023-04-04T02:37:06.057Z,4544.00
2023-04-04T02:38:06.088Z,4465.00
2023-04-04T02:39:06.077Z,4342.00
2023-04-04T02:40:06.067Z,4077.00
2023-04-04T02:41:06.082Z,4137.00
2023-04-04T02:42:06.081Z,4839.00
2023-04-04T02:43:06.088Z,5444.00
2023-04-04T02:44:06.084Z,5709.00
2023-04-04T02:45:06.102Z,5655.00
2023-04-04T02:46:20.378Z,5641.00
2023-04-04T02:47:06.081Z,5630.00
2023-04-04T02:48:06.112Z,5660.00
2023-04-04T02:49:06.048Z,5708.00
2023-04-04T02:50:06.013Z,5748.00
2023-04-04T02:51:05.990Z,5729.00
2023-04-04T02:52:05.947Z,5704.00
2023-04-04T02:53:05.907Z,5152.00
2023-04-04T02:54:05.895Z,4900.00
2023-04-04T02:55:05.837Z,4998.00
2023-04-04T02:56:05.820Z,5275.00
2023-04-04T02:57:05.779Z,5442.00
2023-04-04T02:58:05.786Z,5456.00
2023-04-04T02:59:05.793Z,5873.00
2023-04-04T03:00:05.699Z,6296.00
2023-04-04T03:01:05.725Z,6286.00
2023-04-04T03:02:05.709Z,6215.00
2023-04-04T03:03:05.806Z,5708.00
2023-04-04T03:04:05.809Z,5104.00
2023-04-04T03:05:05.683Z,4792.00
2023-04-04T03:06:05.589Z,4716.00
2023-04-04T03:07:05.579Z,4761.00
2023-04-04T03:08:05.573Z,4858.00
2023-04-04T03:09:05.550Z,4879.00
2023-04-04T03:10:05.558Z,4827.00
2023-04-04T03:11:05.511Z,4769.00
2023-04-04T03:12:05.491Z,4881.00
2023-04-04T03:13:05.482Z,5007.00
2023-04-04T03:14:05.467Z,5090.00
2023-04-04T03:15:05.461Z,4928.00
2023-04-04T03:16:05.472Z,4890.00
2023-04-04T03:17:05.431Z,4797.00
2023-04-04T03:18:05.552Z,4855.00
2023-04-04T03:19:05.400Z,4914.00
2023-04-04T03:20:05.413Z,4952.00
2023-04-04T03:21:05.393Z,4991.00
2023-04-04T03:22:05.384Z,5100.00
2023-04-04T03:23:05.374Z,5073.00
2023-04-04T03:24:05.370Z,4963.00
2023-04-04T03:25:05.367Z,4900.00
2023-04-04T03:26:05.384Z,4616.00
2023-04-04T03:27:05.344Z,4594.00
2023-04-04T03:28:05.335Z,4530.00
2023-04-04T03:29:05.324Z,4495.00
2023-04-04T03:30:05.347Z,4380.00
2023-04-04T03:31:05.316Z,4396.00
2023-04-04T03:32:05.334Z,4335.00
2023-04-04T03:33:05.303Z,4180.00
2023-04-04T03:34:05.305Z,4079.00
2023-04-04T03:35:05.300Z,4255.00
2023-04-04T03:36:05.329Z,4322.00
2023-04-04T03:37:05.281Z,4383.00
2023-04-04T03:38:05.270Z,4295.00
2023-04-04T03:39:05.260Z,3939.00
2023-04-04T03:40:05.266Z,3765.00
2023-04-04T03:41:05.267Z,3754.00
2023-04-04T03:42:05.293Z,3710.00
2023-04-04T03:43:05.274Z,3513.00
2023-04-04T03:44:05.300Z,3454.00
2023-04-04T03:45:05.325Z,3485.00
2023-04-04T03:46:05.393Z,3622.00
2023-04-04T03:47:05.364Z,3844.00
2023-04-04T03:48:05.405Z,3889.00
2023-04-04T03:49:05.409Z,3569.00
2023-04-04T03:50:05.424Z,3284.00
2023-04-04T03:51:05.445Z,3197.00
2023-04-04T03:52:05.438Z,3157.00
2023-04-04T03:53:05.462Z,3190.00
2023-04-04T03:54:05.486Z,3078.00
2023-04-04T03:55:05.503Z,2764.00
2023-04-04T03:56:05.557Z,2688.00
2023-04-04T03:57:05.572Z,2684.00
2023-04-04T03:58:05.619Z,2651.00
2023-04-04T03:59:05.670Z,2717.00
2023-04-04T04:00:05.634Z,3056.00
2023-04-04T04:01:05.686Z,3357.00
2023-04-04T04:02:05.718Z,3563.00
2023-04-04T04:03:05.804Z,3679.00
2023-04-04T04:04:05.741Z,3779.00
2023-04-04T04:05:05.703Z,3853.00
2023-04-04T04:06:05.685Z,4025.00
2023-04-04T04:07:05.691Z,4097.00
2023-04-04T04:08:05.704Z,4128.00
2023-04-04T04:09:05.701Z,4240.00
2023-04-04T04:10:05.688Z,4379.00
2023-04-04T04:11:05.698Z,4537.00
2023-04-04T04:12:05.675Z,4633.00
2023-04-04T04:13:05.660Z,4835.00
2023-04-04T04:14:05.666Z,4627.00
2023-04-04T04:15:05.620Z,4430.00
2023-04-04T04:16:05.636Z,4321.00
2023-04-04T04:17:05.638Z,4349.00
2023-04-04T04:18:05.654Z,4347.00
2023-04-04T04:19:05.681Z,4420.00
2023-04-04T04:20:05.690Z,4496.00
2023-04-04T04:21:05.689Z,4479.00
2023-04-04T04:22:05.689Z,4465.00
2023-04-04T04:23:05.685Z,4359.00
2023-04-04T04:24:05.668Z,4362.00
2023-04-04T04:25:05.702Z,4301.00
2023-04-04T04:26:05.657Z,4425.00
2023-04-04T04:27:05.609Z,4357.00
2023-04-04T04:28:05.602Z,4085.00
2023-04-04T04:29:06.797Z,4043.00
2023-04-04T04:30:05.580Z,4039.00
2023-04-04T04:31:05.604Z,3549.00
2023-04-04T04:32:05.528Z,3353.00
2023-04-04T04:33:05.553Z,3437.00
2023-04-04T04:34:05.466Z,3450.00
2023-04-04T04:35:05.465Z,3600.00
2023-04-04T04:36:05.612Z,3688.00
2023-04-04T04:37:05.491Z,3763.00
2023-04-04T04:38:05.486Z,3700.00
2023-04-04T04:39:05.468Z,3675.00
2023-04-04T04:40:05.450Z,3702.00
2023-04-04T04:41:05.459Z,3797.00
2023-04-04T04:42:05.464Z,4046.00
2023-04-04T04:43:05.517Z,4294.00
2023-04-04T04:44:05.530Z,4539.00
2023-04-04T04:45:05.571Z,4670.00
2023-04-04T04:46:05.613Z,5329.00
2023-04-04T04:47:05.664Z,5669.00
2023-04-04T04:48:05.692Z,5361.00
2023-04-04T04:49:05.743Z,5454.00
2023-04-04T04:50:05.723Z,5654.00
2023-04-04T04:51:05.771Z,5870.00
2023-04-04T04:52:05.776Z,5598.00
2023-04-04T04:53:05.819Z,5433.00
2023-04-04T04:54:05.861Z,5338.00
2023-04-04T04:55:05.852Z,4999.00
2023-04-04T04:56:05.934Z,4594.00
2023-04-04T04:57:05.835Z,4543.00
2023-04-04T04:58:05.825Z,4732.00
2023-04-04T04:59:05.817Z,5199.00
2023-04-04T05:00:05.798Z,5910.00
2023-04-04T05:01:05.836Z,6459.00
2023-04-04T05:02:05.775Z,7305.00
2023-04-04T05:03:05.759Z,6605.00
2023-04-04T05:04:05.727Z,5995.00
2023-04-04T05:05:05.675Z,6399.00
2023-04-04T05:06:05.681Z,6829.00
2023-04-04T05:07:05.637Z,6731.00
2023-04-04T05:08:05.612Z,6546.00
2023-04-04T05:09:05.587Z,6731.00
2023-04-04T05:10:05.583Z,6651.00
2023-04-04T05:11:05.853Z,6804.00
2023-04-04T05:12:05.531Z,6730.00
2023-04-04T05:13:05.555Z,6295.00
2023-04-04T05:14:05.550Z,6310.00
2023-04-04T05:15:05.576Z,6817.00
2023-04-04T05:16:05.626Z,7136.00
2023-04-04T05:17:05.595Z,7366.00
2023-04-04T05:18:05.719Z,7501.00
2023-04-04T05:19:05.656Z,7260.00
2023-04-04T05:20:05.660Z,8378.00
2023-04-04T05:21:05.717Z,8441.00
2023-04-04T05:22:05.711Z,8311.00
2023-04-04T05:23:05.746Z,8569.00
2023-04-04T05:24:05.763Z,8561.00
2023-04-04T05:25:05.789Z,8576.00
2023-04-04T05:26:05.803Z,8560.00
2023-04-04T05:27:05.819Z,8585.00
2023-04-04T05:28:05.806Z,8510.00
2023-04-04T05:29:05.792Z,8613.00
2023-04-04T05:30:05.806Z,8637.00
2023-04-04T05:31:05.847Z,8398.00
2023-04-04T05:32:05.948Z,8361.00
2023-04-04T05:33:05.894Z,8189.00
2023-04-04T05:34:05.867Z,7955.00
2023-04-04T05:35:05.880Z,7994.00
2023-04-04T05:36:05.888Z,7568.00
2023-04-04T05:37:05.905Z,7571.00
2023-04-04T05:38:05.932Z,7171.00
2023-04-04T05:39:05.959Z,6690.00
2023-04-04T05:40:06.041Z,6501.00
2023-04-04T05:41:06.059Z,6211.00
2023-04-04T05:42:06.064Z,6486.00
2023-04-04T05:43:06.085Z,6660.00
2023-04-04T05:44:06.098Z,6573.00
2023-04-04T05:45:06.120Z,6339.00
2023-04-04T05:46:06.195Z,6537.00
2023-04-04T05:47:06.154Z,6902.00
2023-04-04T05:48:06.257Z,7140.00
2023-04-04T05:49:06.177Z,7088.00
2023-04-04T05:50:06.222Z,7218.00
2023-04-04T05:51:06.244Z,7344.00
2023-04-04T05:52:06.299Z,6963.00
2023-04-04T05:53:06.332Z,6523.00
2023-04-04T05:54:06.368Z,6287.00
2023-04-04T05:55:06.396Z,6111.00
2023-04-04T05:56:06.418Z,5740.00
2023-04-04T05:57:06.424Z,5308.00
2023-04-04T05:58:06.449Z,5234.00
2023-04-04T05:59:06.514Z,5438.00
2023-04-04T06:00:06.499Z,5402.00
2023-04-04T06:01:06.521Z,5296.00
2023-04-04T06:02:06.570Z,5562.00
2023-04-04T06:03:06.750Z,5421.00
2023-04-04T06:04:06.681Z,5354.00
2023-04-04T06:05:06.704Z,5365.00
2023-04-04T06:06:06.803Z,5411.00
2023-04-04T06:07:06.818Z,5856.00
2023-04-04T06:08:06.889Z,6065.00
2023-04-04T06:09:08.742Z,6529.00
2023-04-04T06:10:06.953Z,6485.00
2023-04-04T06:11:06.979Z,6364.00
2023-04-04T06:12:06.985Z,6380.00
2023-04-04T06:13:07.000Z,6256.00
2023-04-04T06:14:06.998Z,6697.00
2023-04-04T06:15:07.014Z,7130.00
2023-04-04T06:16:07.090Z,7030.00
2023-04-04T06:17:07.064Z,6644.00
2023-04-04T06:18:07.142Z,6682.00
2023-04-04T06:19:07.096Z,6725.00
2023-04-04T06:20:07.117Z,6796.00
2023-04-04T06:21:07.133Z,6566.00
2023-04-04T06:22:07.177Z,6560.00
2023-04-04T06:23:07.165Z,6639.00
2023-04-04T06:24:07.177Z,6599.00
2023-04-04T06:25:07.182Z,6330.00
2023-04-04T06:26:07.184Z,6061.00
2023-04-04T06:27:07.196Z,5892.00
2023-04-04T06:28:07.201Z,6077.00
2023-04-04T06:29:07.240Z,5931.00
2023-04-04T06:30:08.184Z,6387.00
2023-04-04T06:31:07.323Z,6290.00
2023-04-04T06:32:07.249Z,6106.00
2023-04-04T06:33:07.283Z,5864.00
2023-04-04T06:34:07.275Z,5730.00
2023-04-04T06:35:07.294Z,5724.00
2023-04-04T06:36:07.327Z,5435.00
2023-04-04T06:37:07.333Z,5627.00
2023-04-04T06:38:07.386Z,5600.00
2023-04-04T06:39:07.377Z,5275.00
2023-04-04T06:40:07.413Z,5389.00
2023-04-04T06:41:07.409Z,5332.00
2023-04-04T06:42:07.428Z,4804.00
2023-04-04T06:43:07.449Z,4242.00
2023-04-04T06:44:07.465Z,4431.00
2023-04-04T06:45:07.482Z,4620.00
2023-04-04T06:46:07.518Z,4414.00
2023-04-04T06:47:07.540Z,4102.00
2023-04-04T06:48:07.585Z,3829.00
2023-04-04T06:49:07.572Z,3796.00
2023-04-04T06:50:07.584Z,4020.00
2023-04-04T06:51:07.623Z,4243.00
2023-04-04T06:52:07.654Z,3719.00
2023-04-04T06:53:07.697Z,3722.00
2023-04-04T06:54:07.731Z,3992.00
2023-04-04T06:55:07.753Z,3973.00
2023-04-04T06:56:07.769Z,4144.00
2023-04-04T06:57:07.790Z,4365.00
2023-04-04T06:58:07.797Z,4661.00
2023-04-04T06:59:07.834Z,4444.00
2023-04-04T07:00:07.839Z,4484.00
2023-04-04T07:01:07.911Z,4478.00
2023-04-04T07:02:07.945Z,4396.00
2023-04-04T07:03:08.038Z,4304.00
2023-04-04T07:04:08.053Z,4360.00
2023-04-04T07:05:08.069Z,4037.00
2023-04-04T07:06:08.166Z,3230.00
2023-04-04T07:07:08.188Z,2915.00
2023-04-04T07:08:08.226Z,2549.00
2023-04-04T07:09:12.992Z,1553.00
2023-04-04T07:10:08.284Z,1011.00
2023-04-04T07:11:08.339Z,710.00
2023-04-04T07:12:08.284Z,574.00
2023-04-04T07:13:08.304Z,555.00
2023-04-04T07:14:08.314Z,558.00
2023-04-04T07:15:08.334Z,451.00
2023-04-04T07:16:08.353Z,427.00
2023-04-04T07:17:21.202Z,400.00
2023-04-04T07:18:08.388Z,400.00
2023-04-04T07:19:08.346Z,413.00
2023-04-04T07:20:08.368Z,460.00
2023-04-04T07:21:08.367Z,552.00
2023-04-04T07:22:08.372Z,1769.00
2023-04-04T07:23:08.375Z,1350.00
2023-04-04T07:24:08.364Z,1063.00
2023-04-04T07:25:08.365Z,545.00
2023-04-04T07:26:08.398Z,568.00
2023-04-04T07:27:08.341Z,600.00
2023-04-04T07:28:12.804Z,552.00
2023-04-04T07:29:08.328Z,426.00
2023-04-04T07:30:08.324Z,400.00
2023-04-04T07:31:08.336Z,400.00
2023-04-04T07:32:08.409Z,403.00
2023-04-04T07:33:08.388Z,503.00
2023-04-04T07:34:08.353Z,400.00
2023-04-04T07:35:08.361Z,400.00
2023-04-04T07:36:08.381Z,400.00
2023-04-04T07:37:08.342Z,400.00
2023-04-04T07:38:08.353Z,400.00
2023-04-04T07:39:08.361Z,400.00
2023-04-04T07:40:08.346Z,400.00
2023-04-04T07:41:08.358Z,400.00
2023-04-04T07:42:08.374Z,400.00
2023-04-04T07:43:08.347Z,400.00
2023-04-04T07:44:08.346Z,400.00
2023-04-04T07:45:08.344Z,419.00
2023-04-04T07:46:08.422Z,522.00
2023-04-04T07:47:10.324Z,444.00
2023-04-04T07:48:08.340Z,510.00
2023-04-04T07:49:08.343Z,400.00
2023-04-04T07:50:08.362Z,400.00
2023-04-04T07:51:08.383Z,400.00
2023-04-04T07:52:08.373Z,400.00
2023-04-04T07:53:08.384Z,409.00
2023-04-04T07:54:08.434Z,426.00
2023-04-04T07:55:08.414Z,400.00
2023-04-04T07:56:08.427Z,400.00
2023-04-04T07:57:08.416Z,400.00
2023-04-04T07:58:08.525Z,443.00
2023-04-04T07:59:08.449Z,922.00
2023-04-04T08:00:08.409Z,868.00
2023-04-04T08:01:08.392Z,887.00
2023-04-04T08:02:08.385Z,676.00
2023-04-04T08:03:08.456Z,400.00
2023-04-04T08:04:08.446Z,400.00
2023-04-04T08:05:08.418Z,400.00
2023-04-04T08:06:08.414Z,400.00
2023-04-04T08:07:08.435Z,400.00
2023-04-04T08:08:08.429Z,1241.00
2023-04-04T08:09:08.665Z,2401.00
2023-04-04T08:10:08.440Z,2286.00
2023-04-04T08:11:08.415Z,1873.00
2023-04-04T08:12:08.424Z,1395.00
2023-04-04T08:13:08.419Z,1383.00
2023-04-04T08:14:08.466Z,1322.00
2023-04-04T08:15:08.460Z,1311.00
2023-04-04T08:16:08.454Z,1188.00
2023-04-04T08:17:08.430Z,1670.00
2023-04-04T08:18:08.518Z,1926.00
2023-04-04T08:19:08.499Z,1656.00
2023-04-04T08:20:08.465Z,1541.00
2023-04-04T08:21:08.477Z,2161.00
2023-04-04T08:22:08.481Z,2577.00
2023-04-04T08:23:08.492Z,2691.00
2023-04-04T08:24:08.499Z,2372.00
2023-04-04T08:25:08.483Z,1439.00
2023-04-04T08:26:08.491Z,621.00
2023-04-04T08:27:08.564Z,848.00
2023-04-04T08:28:08.657Z,566.00
2023-04-04T08:29:08.643Z,400.00
2023-04-04T08:30:08.717Z,400.00
2023-04-04T08:31:08.743Z,400.00
2023-04-04T08:32:08.768Z,400.00
2023-04-04T08:33:08.841Z,400.00
2023-04-04T08:34:08.909Z,400.00
2023-04-04T08:35:08.960Z,400.00
2023-04-04T08:36:09.072Z,400.00
2023-04-04T08:37:09.078Z,400.00
2023-04-04T08:38:09.110Z,400.00
2023-04-04T08:39:09.131Z,400.00
2023-04-04T08:40:09.156Z,400.00
2023-04-04T08:41:09.165Z,400.00
2023-04-04T08:42:09.198Z,400.00
2023-04-04T08:43:09.212Z,400.00
2023-04-04T08:44:09.222Z,400.00
2023-04-04T08:45:09.244Z,400.00
2023-04-04T08:46:10.260Z,400.00
2023-04-04T08:47:09.458Z,400.00
2023-04-04T08:48:09.283Z,400.00
2023-04-04T08:49:09.310Z,400.00
2023-04-04T08:50:09.316Z,2850.00
2023-04-04T08:51:09.329Z,3656.00
2023-04-04T08:52:09.335Z,2523.00
2023-04-04T08:53:09.346Z,1362.00
2023-04-04T08:54:09.312Z,1042.00
2023-04-04T08:55:09.318Z,691.00
2023-04-04T08:56:09.309Z,400.00
2023-04-04T08:57:09.320Z,400.00
2023-04-04T08:58:09.353Z,400.00
2023-04-04T08:59:09.375Z,596.00
2023-04-04T09:00:09.430Z,460.00
2023-04-04T09:01:09.355Z,400.00
2023-04-04T09:02:09.401Z,400.00
2023-04-04T09:03:09.452Z,400.00
2023-04-04T09:04:09.295Z,400.00
2023-04-04T09:05:09.292Z,400.00
2023-04-04T09:06:09.277Z,400.00
2023-04-04T09:07:09.273Z,400.00
2023-04-04T09:08:09.291Z,400.00
2023-04-04T09:09:09.261Z,400.00
2023-04-04T09:10:09.255Z,400.00
2023-04-04T09:11:09.259Z,400.00
2023-04-04T09:12:09.241Z,583.00
2023-04-04T09:13:15.968Z,550.00
2023-04-04T09:14:09.222Z,400.00
2023-04-04T09:15:09.433Z,400.00
2023-04-04T09:16:09.238Z,478.00
2023-04-04T09:17:09.200Z,605.00
2023-04-04T09:18:09.213Z,1598.00
2023-04-04T09:19:09.185Z,2748.00
2023-04-04T09:20:09.184Z,3359.00
2023-04-04T09:21:09.187Z,2506.00
2023-04-04T09:22:09.211Z,1683.00
2023-04-04T09:23:09.186Z,1516.00
2023-04-04T09:24:09.190Z,1339.00
2023-04-04T09:25:09.166Z,796.00
2023-04-04T09:26:09.163Z,581.00
2023-04-04T09:27:09.147Z,500.00
2023-04-04T09:28:09.144Z,500.00
2023-04-04T09:29:09.160Z,540.00
2023-04-04T09:30:09.145Z,400.00
2023-04-04T09:31:09.140Z,400.00
2023-04-04T09:32:09.215Z,405.00
2023-04-04T09:33:09.121Z,452.00
2023-04-04T09:34:09.147Z,570.00
2023-04-04T09:35:09.122Z,694.00
2023-04-04T09:36:09.125Z,637.00
2023-04-04T09:37:09.084Z,589.00
2023-04-04T09:38:09.069Z,632.00
2023-04-04T09:39:09.065Z,656.00
2023-04-04T09:40:09.084Z,548.00
2023-04-04T09:41:09.050Z,400.00
2023-04-04T09:42:09.073Z,400.00
2023-04-04T09:43:09.099Z,400.00
2023-04-04T09:44:09.121Z,400.00
2023-04-04T09:45:10.525Z,439.00
2023-04-04T09:46:09.227Z,500.00
2023-04-04T09:47:10.500Z,527.00
2023-04-04T09:48:09.284Z,528.00
2023-04-04T09:49:11.314Z,534.00
2023-04-04T09:50:09.345Z,529.00
2023-04-04T09:51:09.352Z,529.00
2023-04-04T09:52:09.397Z,506.00
2023-04-04T09:53:09.364Z,514.00
2023-04-04T09:54:15.690Z,553.00
2023-04-04T09:55:09.367Z,528.00
2023-04-04T09:56:09.382Z,538.00
2023-04-04T09:57:09.368Z,550.00
2023-04-04T09:58:09.393Z,577.00
2023-04-04T09:59:09.810Z,613.00
2023-04-04T10:00:09.478Z,582.00
2023-04-04T10:01:09.497Z,545.00
2023-04-04T10:02:09.466Z,525.00
2023-04-04T10:03:09.464Z,500.00
2023-04-04T10:04:09.494Z,523.00
2023-04-04T10:05:09.475Z,580.00
2023-04-04T10:06:09.493Z,590.00
2023-04-04T10:07:09.452Z,592.00
2023-04-04T10:08:09.426Z,564.00
2023-04-04T10:09:09.422Z,504.00
2023-04-04T10:10:09.400Z,508.00
2023-04-04T10:11:12.299Z,540.00
2023-04-04T10:12:09.397Z,514.00
2023-04-04T10:13:09.378Z,524.00
2023-04-04T10:14:09.381Z,512.00
2023-04-04T10:15:09.376Z,517.00
2023-04-04T10:16:09.521Z,556.00
2023-04-04T10:17:10.382Z,583.00
2023-04-04T10:18:09.345Z,593.00
2023-04-04T10:19:09.372Z,606.00
2023-04-04T10:20:09.347Z,585.00
2023-04-04T10:21:15.416Z,559.00
2023-04-04T10:22:09.308Z,558.00
2023-04-04T10:23:09.263Z,559.00
2023-04-04T10:24:09.658Z,561.00
2023-04-04T10:25:09.234Z,571.00
2023-04-04T10:26:09.206Z,580.00
2023-04-04T10:27:09.223Z,551.00
2023-04-04T10:28:09.196Z,516.00
2023-04-04T10:29:09.194Z,555.00
2023-04-04T10:30:09.210Z,567.00
2023-04-04T10:31:09.220Z,541.00
2023-04-04T10:32:09.263Z,503.00
2023-04-04T10:33:09.160Z,525.00
2023-04-04T10:34:09.122Z,545.00
2023-04-04T10:35:09.106Z,562.00
2023-04-04T10:36:09.142Z,543.00
2023-04-04T10:37:10.072Z,547.00
2023-04-04T10:38:09.093Z,547.00
2023-04-04T10:39:09.050Z,550.00
2023-04-04T10:40:09.019Z,550.00
2023-04-04T10:41:09.001Z,517.00
2023-04-04T10:42:08.993Z,489.00
2023-04-04T10:43:08.995Z,516.00
2023-04-04T10:44:08.990Z,561.00
2023-04-04T10:45:19.767Z,602.00
2023-04-04T10:46:09.033Z,589.00
2023-04-04T10:47:09.022Z,569.00
2023-04-04T10:48:10.398Z,538.00
2023-04-04T10:49:09.266Z,512.00
2023-04-04T10:50:09.308Z,511.00
2023-04-04T10:51:09.316Z,476.00
2023-04-04T10:52:09.352Z,492.00
2023-04-04T10:53:09.395Z,539.00
2023-04-04T10:54:09.426Z,553.00
2023-04-04T10:55:09.432Z,540.00
2023-04-04T10:56:09.465Z,500.00
2023-04-04T10:57:09.520Z,500.00
2023-04-04T10:58:09.568Z,516.00
2023-04-04T10:59:09.623Z,553.00
2023-04-04T11:00:09.613Z,568.00
2023-04-04T11:01:09.666Z,586.00
2023-04-04T11:02:09.644Z,605.00
2023-04-04T11:03:09.686Z,596.00
2023-04-04T11:04:09.685Z,583.00
2023-04-04T11:05:09.663Z,597.00
2023-04-04T11:06:09.675Z,738.00
2023-04-04T11:07:09.655Z,627.00
2023-04-04T11:08:09.957Z,595.00
2023-04-04T11:09:09.654Z,616.00
2023-04-04T11:10:09.675Z,842.00
2023-04-04T11:11:21.746Z,854.00
2023-04-04T11:12:09.679Z,533.00
2023-04-04T11:13:13.366Z,767.00
2023-04-04T11:14:10.908Z,867.00
2023-04-04T11:15:09.579Z,965.00
2023-04-04T11:16:09.558Z,1189.00
2023-04-04T11:17:09.535Z,1520.00
2023-04-04T11:18:22.243Z,2343.00
2023-04-04T11:19:09.442Z,906.00
2023-04-04T11:20:09.421Z,989.00
2023-04-04T11:21:09.391Z,1239.00
2023-04-04T11:22:09.367Z,1052.00
2023-04-04T11:23:09.354Z,1425.00
2023-04-04T11:24:09.344Z,1244.00
2023-04-04T11:25:09.340Z,595.00
2023-04-04T11:26:09.342Z,826.00
2023-04-04T11:27:09.307Z,769.00
2023-04-04T11:28:09.268Z,607.00
2023-04-04T11:29:09.236Z,617.00
2023-04-04T11:30:09.224Z,593.00
2023-04-04T11:31:09.207Z,531.00
2023-04-04T11:32:09.200Z,504.00
2023-04-04T11:33:09.203Z,523.00
2023-04-04T11:34:09.118Z,547.00
2023-04-04T11:35:09.074Z,512.00
2023-04-04T11:36:09.055Z,911.00
2023-04-04T11:37:09.025Z,1885.00
2023-04-04T11:38:08.992Z,1315.00
2023-04-04T11:39:08.959Z,562.00
2023-04-04T11:40:08.934Z,642.00
2023-04-04T11:41:08.882Z,570.00
2023-04-04T11:42:08.873Z,561.00
2023-04-04T11:43:08.801Z,541.00
2023-04-04T11:44:08.769Z,531.00
2023-04-04T11:45:08.733Z,547.00
2023-04-04T11:46:08.793Z,512.00
2023-04-04T11:47:08.697Z,500.00
2023-04-04T11:48:08.673Z,535.00
2023-04-04T11:49:08.653Z,593.00
2023-04-04T11:50:08.615Z,591.00
2023-04-04T11:51:08.594Z,746.00
2023-04-04T11:52:08.569Z,1451.00
2023-04-04T11:53:08.540Z,972.00
2023-04-04T11:54:08.544Z,610.00
2023-04-04T11:55:08.508Z,592.00
2023-04-04T11:56:08.478Z,595.00
2023-04-04T11:57:08.462Z,604.00
2023-04-04T11:58:10.003Z,576.00
2023-04-04T11:59:11.846Z,576.00
2023-04-04T12:00:08.400Z,566.00
2023-04-04T12:01:08.398Z,558.00
2023-04-04T12:02:08.389Z,575.00
2023-04-04T12:03:08.435Z,594.00
2023-04-04T12:04:08.324Z,610.00
2023-04-04T12:05:08.372Z,621.00
2023-04-04T12:06:08.316Z,621.00
2023-04-04T12:07:08.269Z,614.00
2023-04-04T12:08:08.257Z,631.00
2023-04-04T12:09:08.232Z,645.00
2023-04-04T12:10:08.208Z,641.00
2023-04-04T12:11:08.181Z,632.00
2023-04-04T12:12:08.167Z,633.00
2023-04-04T12:13:08.156Z,605.00
2023-04-04T12:14:08.136Z,571.00